Time;durP1;ratioP1;P1;durP2;ratioP2;P2;SDS_P1;SDS_P2;PMS_P1;PMS_P2;Temp;Humidity;BMP_temperature;BMP_pressure;BME280_temperature;BME280_humidity;BME280_pressure;Samples;Min_cycle;Max_cycle;Signal;HPM_P1;HPM_P2
2023/01/21 00:00:31;;;;;;;;;;;;;;;;;;4974066;28;19920;-78
2023/01/21 00:02:58;;;;;;;;;;;;;;;;;;4996008;28;19920;-79
2023/01/21 00:05:41;;;;;;;;;;;;;;;;;;4975348;28;19926;-78
2023/01/21 00:08:43;;;;;;;;;;;;;;;;;;4971404;28;19928;-78
2023/01/21 00:11:17;;;;;;;;;;;;;;;;;;4973275;28;19925;-80
2023/01/21 00:13:44;;;;;;;;;;;;;;;;;;4952878;28;19914;-75
2023/01/21 00:16:41;;;;;;;;;;;;;;;;;;4950928;28;20380;-77
2023/01/21 00:19:09;;;;;;;;;;;;;;;;;;5029004;28;19916;-75
2023/01/21 00:21:35;;;;;;;;;;;;;;;;;;5025417;28;19924;-76
2023/01/21 00:24:01;;;;;;;;;;;;;;;;;;5013514;28;19921;-75
2023/01/21 00:26:27;;;;;;;;;;;;;;;;;;5010221;28;19921;-77
2023/01/21 00:28:53;;;;;;;;;;;;;;;;;;5025512;28;19928;-76
2023/01/21 00:31:20;;;;;;;;;;;;;;;;;;5006099;28;19948;-75
2023/01/21 00:33:47;;;;;;;;;;;;;;;;;;5033213;28;19921;-77
2023/01/21 00:36:17;;;;;;;;;;;;;;;;;;5013713;28;19987;-75
2023/01/21 00:38:43;;;;;;;;;;;;;;;;;;5024779;28;19921;-76
2023/01/21 00:41:09;;;;;;;;;;;;;;;;;;5027196;28;19928;-76
2023/01/21 00:43:35;;;;;;;;;;;;;;;;;;5008741;28;20016;-77
2023/01/21 00:46:02;;;;;;;;;;;;;;;;;;5027199;28;20658;-76
2023/01/21 00:48:28;;;;;;;;;;;;;;;;;;4981477;28;19914;-77
2023/01/21 00:50:54;;;;;;;;;;;;;;;;;;5007136;28;19932;-77
2023/01/21 00:53:21;;;;;;;;;;;;;;;;;;5015795;28;19929;-76
2023/01/21 00:55:47;;;;;;;;;;;;;;;;;;5009265;28;20019;-76
2023/01/21 00:58:13;;;;;;;;;;;;;;;;;;5019067;28;19972;-77
2023/01/21 01:00:39;;;;;;;;;;;;;;;;;;5007640;28;19960;-77
2023/01/21 01:03:06;;;;;;;;;;;;;;;;;;5007041;28;19924;-77
2023/01/21 01:05:32;;;;;;;;;;;;;;;;;;5010441;28;19952;-77
2023/01/21 01:07:58;;;;;;;;;;;;;;;;;;5008651;28;19968;-77
2023/01/21 01:10:24;;;;;;;;;;;;;;;;;;4993666;28;19938;-77
2023/01/21 01:12:51;;;;;;;;;;;;;;;;;;4994995;28;19963;-77
2023/01/21 01:15:17;;;;;;;;;;;;;;;;;;5008899;28;19921;-77
2023/01/21 01:17:44;;;;;;;;;;;;;;;;;;5008849;28;19921;-78
2023/01/21 01:20:10;;;;;;;;;;;;;;;;;;4990173;28;19921;-78
2023/01/21 01:22:36;;;;;;;;;;;;;;;;;;5005164;28;19917;-78
2023/01/21 01:25:02;;;;;;;;;;;;;;;;;;4986115;28;20369;-77
2023/01/21 01:27:28;;;;;;;;;;;;;;;;;;5033454;28;20497;-79
2023/01/21 01:29:55;;;;;;;;;;;;;;;;;;5004342;28;19929;-78
2023/01/21 01:32:21;;;;;;;;;;;;;;;;;;4987923;28;19933;-78
2023/01/21 01:34:47;;;;;;;;;;;;;;;;;;5028838;28;19956;-77
2023/01/21 01:37:13;;;;;;;;;;;;;;;;;;5008655;28;20380;-78
2023/01/21 01:39:39;;;;;;;;;;;;;;;;;;5002135;28;19921;-77
2023/01/21 01:42:06;;;;;;;;;;;;;;;;;;5005429;28;20380;-77
2023/01/21 01:44:32;;;;;;;;;;;;;;;;;;5009791;28;19918;-76
2023/01/21 01:46:58;;;;;;;;;;;;;;;;;;5012729;28;19921;-77
2023/01/21 01:49:24;;;;;;;;;;;;;;;;;;4997854;28;20027;-76
2023/01/21 01:51:51;;;;;;;;;;;;;;;;;;5005258;28;19941;-75
2023/01/21 01:54:17;;;;;;;;;;;;;;;;;;4987925;28;20006;-76
2023/01/21 01:56:43;;;;;;;;;;;;;;;;;;4975792;28;19922;-76
2023/01/21 01:59:10;;;;;;;;;;;;;;;;;;4987852;28;19922;-76
2023/01/21 02:01:36;;;;;;;;;;;;;;;;;;4987554;28;19917;-75
2023/01/21 02:04:03;;;;;;;;;;;;;;;;;;4984797;28;20036;-75
2023/01/21 02:06:29;;;;;;;;;;;;;;;;;;4967463;28;20266;-76
2023/01/21 02:08:56;;;;;;;;;;;;;;;;;;4996901;28;19917;-77
2023/01/21 02:11:22;;;;;;;;;;;;;;;;;;4986342;28;20297;-76
2023/01/21 02:13:48;;;;;;;;;;;;;;;;;;4980556;28;19953;-76
2023/01/21 02:16:14;;;;;;;;;;;;;;;;;;5005818;28;19921;-77
2023/01/21 02:18:40;;;;;;;;;;;;;;;;;;5001996;28;19949;-76
2023/01/21 02:21:07;;;;;;;;;;;;;;;;;;4983594;28;19957;-78
2023/01/21 02:23:33;;;;;;;;;;;;;;;;;;4984707;28;19956;-77
2023/01/21 02:25:59;;;;;;;;;;;;;;;;;;4980005;28;19953;-77
2023/01/21 02:28:25;;;;;;;;;;;;;;;;;;4998991;28;19921;-76
2023/01/21 02:30:52;;;;;;;;;;;;;;;;;;4986004;28;19925;-77
2023/01/21 02:33:18;;;;;;;;;;;;;;;;;;4976904;28;19914;-77
2023/01/21 02:35:44;;;;;;;;;;;;;;;;;;4982918;28;19921;-78
2023/01/21 02:38:10;;;;;;;;;;;;;;;;;;5006707;28;19917;-76
2023/01/21 02:40:36;;;;;;;;;;;;;;;;;;4995585;28;20334;-77
2023/01/21 02:43:03;;;;;;;;;;;;;;;;;;4970561;28;19913;-75
2023/01/21 02:45:29;;;;;;;;;;;;;;;;;;4998660;28;19953;-75
2023/01/21 02:47:55;;;;;;;;;;;;;;;;;;4980696;28;19918;-77
2023/01/21 02:50:21;;;;;;;;;;;;;;;;;;4983705;28;20472;-78
2023/01/21 02:52:48;;;;;;;;;;;;;;;;;;5007122;28;19932;-76
2023/01/21 02:55:14;;;;;;;;;;;;;;;;;;5014112;28;19921;-77
2023/01/21 02:57:40;;;;;;;;;;;;;;;;;;4993382;28;19987;-76
2023/01/21 03:00:06;;;;;;;;;;;;;;;;;;5007443;28;19924;-77
2023/01/21 03:02:33;;;;;;;;;;;;;;;;;;4993247;28;19966;-77
2023/01/21 03:04:59;;;;;;;;;;;;;;;;;;5025605;28;19967;-78
2023/01/21 03:07:25;;;;;;;;;;;;;;;;;;4999996;28;19936;-77
2023/01/21 03:09:51;;;;;;;;;;;;;;;;;;5007757;28;19921;-78
2023/01/21 03:12:17;;;;;;;;;;;;;;;;;;5004924;28;19921;-77
2023/01/21 03:17:29;;;;;;;;;;;;;;;;;;5009782;28;19921;-78
2023/01/21 03:19:55;;;;;;;;;;;;;;;;;;5015776;28;19921;-78
2023/01/21 03:22:21;;;;;;;;;;;;;;;;;;5026068;28;19917;-77
2023/01/21 03:24:47;;;;;;;;;;;;;;;;;;5006531;28;19920;-77
2023/01/21 03:27:14;;;;;;;;;;;;;;;;;;5024400;28;19921;-78
2023/01/21 03:29:41;;;;;;;;;;;;;;;;;;5012896;28;19928;-77
2023/01/21 03:32:08;;;;;;;;;;;;;;;;;;4990455;28;20348;-76
2023/01/21 03:34:34;;;;;;;;;;;;;;;;;;5006058;28;19917;-76
2023/01/21 03:37:01;;;;;;;;;;;;;;;;;;5004956;28;19925;-76
2023/01/21 03:39:27;;;;;;;;;;;;;;;;;;5003364;28;20340;-76
2023/01/21 03:41:53;;;;;;;;;;;;;;;;;;5004397;28;19961;-76
2023/01/21 03:44:19;;;;;;;;;;;;;;;;;;5007524;28;19925;-77
2023/01/21 03:46:45;;;;;;;;;;;;;;;;;;5016655;28;20228;-75
2023/01/21 03:49:12;;;;;;;;;;;;;;;;;;5002112;28;19920;-76
2023/01/21 03:51:38;;;;;;;;;;;;;;;;;;5003831;28;19929;-77
2023/01/21 03:54:04;;;;;;;;;;;;;;;;;;4989695;28;19928;-77
2023/01/21 03:56:31;;;;;;;;;;;;;;;;;;5002744;28;19922;-77
2023/01/21 03:58:57;;;;;;;;;;;;;;;;;;5006085;28;19971;-77
2023/01/21 04:01:23;;;;;;;;;;;;;;;;;;4999562;28;20324;-77
2023/01/21 04:03:49;;;;;;;;;;;;;;;;;;5015468;28;19941;-77
2023/01/21 04:06:16;;;;;;;;;;;;;;;;;;5024976;28;19928;-77
2023/01/21 04:08:42;;;;;;;;;;;;;;;;;;5015717;28;19921;-78
2023/01/21 04:11:08;;;;;;;;;;;;;;;;;;5003597;28;20616;-77
2023/01/21 04:13:34;;;;;;;;;;;;;;;;;;4989855;28;19984;-77
2023/01/21 04:16:01;;;;;;;;;;;;;;;;;;5002068;28;19948;-76
2023/01/21 04:18:27;;;;;;;;;;;;;;;;;;5005218;28;20648;-78
2023/01/21 04:20:53;;;;;;;;;;;;;;;;;;4987614;28;19921;-76
2023/01/21 04:23:19;;;;;;;;;;;;;;;;;;5012128;28;19925;-78
2023/01/21 04:25:45;;;;;;;;;;;;;;;;;;5009142;28;19996;-77
2023/01/21 04:28:12;;;;;;;;;;;;;;;;;;5010872;28;19914;-77
2023/01/21 04:30:38;;;;;;;;;;;;;;;;;;5011067;28;19933;-78
2023/01/21 04:33:04;;;;;;;;;;;;;;;;;;5014320;28;19921;-78
2023/01/21 04:35:30;;;;;;;;;;;;;;;;;;5011446;28;19921;-78
2023/01/21 04:37:56;;;;;;;;;;;;;;;;;;4998990;28;19917;-79
2023/01/21 04:40:23;;;;;;;;;;;;;;;;;;5015400;28;19987;-79
2023/01/21 04:42:49;;;;;;;;;;;;;;;;;;5005202;28;19951;-79
2023/01/21 04:45:15;;;;;;;;;;;;;;;;;;4999113;28;19963;-77
2023/01/21 04:47:41;;;;;;;;;;;;;;;;;;4985685;28;19921;-78
2023/01/21 04:50:08;;;;;;;;;;;;;;;;;;5004973;28;19929;-79
2023/01/21 04:52:34;;;;;;;;;;;;;;;;;;5003716;28;19928;-79
2023/01/21 04:55:00;;;;;;;;;;;;;;;;;;5004514;28;19956;-77
2023/01/21 04:57:26;;;;;;;;;;;;;;;;;;5005564;28;19964;-76
2023/01/21 04:59:52;;;;;;;;;;;;;;;;;;5005591;28;19944;-77
2023/01/21 05:02:19;;;;;;;;;;;;;;;;;;5018602;28;19921;-76
2023/01/21 05:04:45;;;;;;;;;;;;;;;;;;5018140;28;19917;-76
2023/01/21 05:07:12;;;;;;;;;;;;;;;;;;5009106;28;20368;-75
2023/01/21 05:09:38;;;;;;;;;;;;;;;;;;5008889;28;20273;-76
2023/01/21 05:12:04;;;;;;;;;;;;;;;;;;5006097;28;19921;-77
2023/01/21 05:14:30;;;;;;;;;;;;;;;;;;5027800;28;19917;-77
2023/01/21 05:16:56;;;;;;;;;;;;;;;;;;4998380;28;20514;-77
2023/01/21 05:19:23;;;;;;;;;;;;;;;;;;5026373;28;19996;-78
2023/01/21 05:21:49;;;;;;;;;;;;;;;;;;5000255;28;20054;-77
2023/01/21 05:24:15;;;;;;;;;;;;;;;;;;5032372;28;20468;-77
2023/01/21 05:26:42;;;;;;;;;;;;;;;;;;5014113;28;19944;-77
2023/01/21 05:29:08;;;;;;;;;;;;;;;;;;5023770;28;19966;-77
2023/01/21 05:31:34;;;;;;;;;;;;;;;;;;5017662;28;19925;-77
2023/01/21 05:34:00;;;;;;;;;;;;;;;;;;5002086;28;19921;-77
2023/01/21 05:36:26;;;;;;;;;;;;;;;;;;5002179;28;20390;-77
2023/01/21 05:38:53;;;;;;;;;;;;;;;;;;5021822;28;19917;-77
2023/01/21 05:41:19;;;;;;;;;;;;;;;;;;5009621;28;20580;-76
2023/01/21 05:43:48;;;;;;;;;;;;;;;;;;4988530;28;20023;-78
2023/01/21 05:46:14;;;;;;;;;;;;;;;;;;5004323;28;19917;-77
2023/01/21 05:48:40;;;;;;;;;;;;;;;;;;5007199;28;19979;-76
2023/01/21 05:51:06;;;;;;;;;;;;;;;;;;5006561;28;20427;-78
2023/01/21 05:53:32;;;;;;;;;;;;;;;;;;5021285;28;19933;-77
2023/01/21 05:55:59;;;;;;;;;;;;;;;;;;5026279;28;19921;-78
2023/01/21 05:58:25;;;;;;;;;;;;;;;;;;5007017;28;19922;-78
2023/01/21 06:00:51;;;;;;;;;;;;;;;;;;5018224;28;19921;-78
2023/01/21 06:03:17;;;;;;;;;;;;;;;;;;5005380;28;19972;-78
2023/01/21 06:05:44;;;;;;;;;;;;;;;;;;5008709;28;20372;-77
2023/01/21 06:08:10;;;;;;;;;;;;;;;;;;5004063;28;19944;-78
2023/01/21 06:10:36;;;;;;;;;;;;;;;;;;5001364;28;19983;-77
2023/01/21 06:13:02;;;;;;;;;;;;;;;;;;5006601;28;20010;-77
2023/01/21 06:15:30;;;;;;;;;;;;;;;;;;5020523;28;19925;-78
2023/01/21 06:17:57;;;;;;;;;;;;;;;;;;5001620;28;19933;-79
2023/01/21 06:20:23;;;;;;;;;;;;;;;;;;5016740;28;19920;-79
2023/01/21 06:22:49;;;;;;;;;;;;;;;;;;4991525;28;20353;-78
2023/01/21 06:25:15;;;;;;;;;;;;;;;;;;5012354;28;19914;-78
2023/01/21 06:27:41;;;;;;;;;;;;;;;;;;5011717;28;19921;-79
2023/01/21 06:30:08;;;;;;;;;;;;;;;;;;5008761;28;20428;-78
2023/01/21 06:32:34;;;;;;;;;;;;;;;;;;5020755;28;19952;-77
2023/01/21 06:35:00;;;;;;;;;;;;;;;;;;4993475;28;20557;-78
2023/01/21 06:37:27;;;;;;;;;;;;;;;;;;5004083;28;20463;-78
2023/01/21 06:39:53;;;;;;;;;;;;;;;;;;5003758;28;19914;-77
2023/01/21 06:42:19;;;;;;;;;;;;;;;;;;4996690;28;20007;-78
2023/01/21 06:44:45;;;;;;;;;;;;;;;;;;5001365;28;19921;-77
2023/01/21 06:47:11;;;;;;;;;;;;;;;;;;5018148;28;20300;-77
2023/01/21 06:49:38;;;;;;;;;;;;;;;;;;5017272;28;19921;-79
2023/01/21 06:52:04;;;;;;;;;;;;;;;;;;5001697;28;19980;-78
2023/01/21 06:54:30;;;;;;;;;;;;;;;;;;5024789;28;19913;-79
2023/01/21 06:56:56;;;;;;;;;;;;;;;;;;5014406;28;20626;-79
2023/01/21 06:59:22;;;;;;;;;;;;;;;;;;5006807;28;20511;-78
2023/01/21 07:01:49;;;;;;;;;;;;;;;;;;5006921;28;19921;-78
2023/01/21 07:04:15;;;;;;;;;;;;;;;;;;5002027;28;19940;-78
2023/01/21 07:06:41;;;;;;;;;;;;;;;;;;5014324;28;20369;-78
2023/01/21 07:09:07;;;;;;;;;;;;;;;;;;5003459;28;19921;-78
2023/01/21 07:11:33;;;;;;;;;;;;;;;;;;4981709;28;19929;-77
2023/01/21 07:14:00;;;;;;;;;;;;;;;;;;5016548;28;20380;-76
2023/01/21 07:16:29;;;;;;;;;;;;;;;;;;5006267;28;20551;-77
2023/01/21 07:18:58;;;;;;;;;;;;;;;;;;5001435;28;19995;-77
2023/01/21 07:21:24;;;;;;;;;;;;;;;;;;4978179;28;19983;-81
2023/01/21 07:23:51;;;;;;;;;;;;;;;;;;4986925;28;20601;-78
2023/01/21 07:26:17;;;;;;;;;;;;;;;;;;5001646;28;19956;-78
2023/01/21 07:28:43;;;;;;;;;;;;;;;;;;5001048;28;19921;-78
2023/01/21 07:31:10;;;;;;;;;;;;;;;;;;5007165;28;19925;-77
2023/01/21 07:33:36;;;;;;;;;;;;;;;;;;5013973;28;20398;-78
2023/01/21 07:36:02;;;;;;;;;;;;;;;;;;4998901;28;19929;-77
2023/01/21 07:38:29;;;;;;;;;;;;;;;;;;5000248;28;19921;-78
2023/01/21 07:40:55;;;;;;;;;;;;;;;;;;5011987;28;19969;-77
2023/01/21 07:43:21;;;;;;;;;;;;;;;;;;5014925;28;20027;-74
2023/01/21 07:45:47;;;;;;;;;;;;;;;;;;5011109;28;19917;-73
2023/01/21 07:48:14;;;;;;;;;;;;;;;;;;5009982;28;20011;-74
2023/01/21 07:50:40;;;;;;;;;;;;;;;;;;4986916;28;20324;-74
2023/01/21 07:53:06;;;;;;;;;;;;;;;;;;5013336;28;19987;-74
2023/01/21 07:55:33;;;;;;;;;;;;;;;;;;4999946;28;19925;-74
2023/01/21 07:57:59;;;;;;;;;;;;;;;;;;5000948;28;19921;-74
2023/01/21 08:00:28;;;;;;;;;;;;;;;;;;5000180;28;20015;-74
2023/01/21 08:02:55;;;;;;;;;;;;;;;;;;5012116;28;20392;-74
2023/01/21 08:05:21;;;;;;;;;;;;;;;;;;5004951;28;19913;-74
2023/01/21 08:07:47;;;;;;;;;;;;;;;;;;5030053;28;20433;-73
2023/01/21 08:10:14;;;;;;;;;;;;;;;;;;5007261;28;19936;-73
2023/01/21 08:12:40;;;;;;;;;;;;;;;;;;4997197;28;20380;-74
2023/01/21 08:15:06;;;;;;;;;;;;;;;;;;4999054;28;20016;-73
2023/01/21 08:17:33;;;;;;;;;;;;;;;;;;4992418;28;19970;-72
2023/01/21 08:19:59;;;;;;;;;;;;;;;;;;5008159;28;19974;-73
2023/01/21 08:22:25;;;;;;;;;;;;;;;;;;5026815;28;19921;-73
2023/01/21 08:24:52;;;;;;;;;;;;;;;;;;4994658;28;20020;-73
2023/01/21 08:27:18;;;;;;;;;;;;;;;;;;5007056;28;19917;-73
2023/01/21 08:29:45;;;;;;;;;;;;;;;;;;5020089;28;19925;-73
2023/01/21 08:32:11;;;;;;;;;;;;;;;;;;5012636;28;20368;-73
2023/01/21 08:34:38;;;;;;;;;;;;;;;;;;5003978;28;20018;-74
2023/01/21 08:37:04;;;;;;;;;;;;;;;;;;5011080;28;19964;-73
2023/01/21 08:39:30;;;;;;;;;;;;;;;;;;5017088;28;20379;-73
2023/01/21 08:41:56;;;;;;;;;;;;;;;;;;5029723;28;19924;-73
2023/01/21 08:44:22;;;;;;;;;;;;;;;;;;4987548;28;19924;-73
2023/01/21 08:46:49;;;;;;;;;;;;;;;;;;5001315;28;19927;-72
2023/01/21 08:49:15;;;;;;;;;;;;;;;;;;5001493;28;19948;-72
2023/01/21 08:51:41;;;;;;;;;;;;;;;;;;5017471;28;20396;-73
2023/01/21 08:54:07;;;;;;;;;;;;;;;;;;5016521;28;19924;-72
2023/01/21 08:56:34;;;;;;;;;;;;;;;;;;4995702;28;20058;-74
2023/01/21 08:59:01;;;;;;;;;;;;;;;;;;5015944;28;19956;-74
2023/01/21 09:01:28;;;;;;;;;;;;;;;;;;5012119;28;19979;-74
2023/01/21 09:03:54;;;;;;;;;;;;;;;;;;5004399;28;20015;-73
2023/01/21 09:06:21;;;;;;;;;;;;;;;;;;5014321;28;19956;-73
2023/01/21 09:08:48;;;;;;;;;;;;;;;;;;5016558;28;19968;-74
2023/01/21 09:11:15;;;;;;;;;;;;;;;;;;5018359;28;20036;-75
2023/01/21 09:13:43;;;;;;;;;;;;;;;;;;5002326;28;20730;-73
2023/01/21 09:16:09;;;;;;;;;;;;;;;;;;5014370;28;20443;-74
2023/01/21 09:18:36;;;;;;;;;;;;;;;;;;5007572;28;20470;-72
2023/01/21 09:21:05;;;;;;;;;;;;;;;;;;5030349;28;19956;-77
2023/01/21 09:23:33;;;;;;;;;;;;;;;;;;5015057;28;20123;-74
2023/01/21 09:25:59;;;;;;;;;;;;;;;;;;5034022;28;20718;-72
2023/01/21 09:28:25;;;;;;;;;;;;;;;;;;5011944;28;19918;-73
2023/01/21 09:30:51;;;;;;;;;;;;;;;;;;5016797;28;20369;-73
2023/01/21 09:33:17;;;;;;;;;;;;;;;;;;5020749;28;19921;-73
2023/01/21 09:35:44;;;;;;;;;;;;;;;;;;5034103;28;19925;-73
2023/01/21 09:38:11;;;;;;;;;;;;;;;;;;5015555;28;20952;-73
2023/01/21 09:40:37;;;;;;;;;;;;;;;;;;4996514;28;19920;-71
2023/01/21 09:43:04;;;;;;;;;;;;;;;;;;5014560;28;19947;-73
2023/01/21 09:45:30;;;;;;;;;;;;;;;;;;5016401;28;19916;-73
2023/01/21 09:47:56;;;;;;;;;;;;;;;;;;5008450;28;20564;-77
2023/01/21 09:50:22;;;;;;;;;;;;;;;;;;5002644;28;19929;-76
2023/01/21 09:52:50;;;;;;;;;;;;;;;;;;5017438;28;19928;-76
2023/01/21 09:55:17;;;;;;;;;;;;;;;;;;4998898;28;19921;-75
2023/01/21 09:57:43;;;;;;;;;;;;;;;;;;5024560;28;19994;-74
2023/01/21 10:00:09;;;;;;;;;;;;;;;;;;5032321;28;19956;-77
2023/01/21 10:02:35;;;;;;;;;;;;;;;;;;5007010;28;20018;-77
2023/01/21 10:05:05;;;;;;;;;;;;;;;;;;5016498;28;20387;-75
2023/01/21 10:07:31;;;;;;;;;;;;;;;;;;5034203;28;19998;-76
2023/01/21 10:09:57;;;;;;;;;;;;;;;;;;5011749;28;19990;-76
2023/01/21 10:12:24;;;;;;;;;;;;;;;;;;5011982;28;19917;-75
2023/01/21 10:14:50;;;;;;;;;;;;;;;;;;5020113;28;19917;-75
2023/01/21 10:17:16;;;;;;;;;;;;;;;;;;5012997;28;19944;-76
2023/01/21 10:19:42;;;;;;;;;;;;;;;;;;5031107;28;19960;-76
2023/01/21 10:22:09;;;;;;;;;;;;;;;;;;5029103;28;20655;-76
2023/01/21 10:24:36;;;;;;;;;;;;;;;;;;5011358;28;19917;-76
2023/01/21 10:27:04;;;;;;;;;;;;;;;;;;5008651;28;19925;-77
2023/01/21 10:29:31;;;;;;;;;;;;;;;;;;5015663;28;20707;-75
2023/01/21 10:31:58;;;;;;;;;;;;;;;;;;5022653;28;19940;-76
2023/01/21 10:34:24;;;;;;;;;;;;;;;;;;5010898;28;19921;-75
2023/01/21 10:36:50;;;;;;;;;;;;;;;;;;5010334;28;19925;-74
2023/01/21 10:39:16;;;;;;;;;;;;;;;;;;5009716;28;19932;-75
2023/01/21 10:41:43;;;;;;;;;;;;;;;;;;5031391;28;19929;-77
2023/01/21 10:44:09;;;;;;;;;;;;;;;;;;5018726;28;20373;-74
2023/01/21 10:46:35;;;;;;;;;;;;;;;;;;5016110;28;19920;-76
2023/01/21 10:49:02;;;;;;;;;;;;;;;;;;4999680;28;19924;-75
2023/01/21 10:51:28;;;;;;;;;;;;;;;;;;5002950;28;19948;-76
2023/01/21 10:53:55;;;;;;;;;;;;;;;;;;5016461;28;19940;-76
2023/01/21 10:56:21;;;;;;;;;;;;;;;;;;5032554;28;19947;-76
2023/01/21 10:58:48;;;;;;;;;;;;;;;;;;5015647;28;20536;-75
2023/01/21 11:01:14;;;;;;;;;;;;;;;;;;5038951;28;19970;-76
2023/01/21 11:03:40;;;;;;;;;;;;;;;;;;5012289;28;19975;-76
2023/01/21 11:06:07;;;;;;;;;;;;;;;;;;5017189;28;19983;-75
2023/01/21 11:08:33;;;;;;;;;;;;;;;;;;5012151;28;20022;-76
2023/01/21 11:10:59;;;;;;;;;;;;;;;;;;5035513;28;19998;-75
2023/01/21 11:13:26;;;;;;;;;;;;;;;;;;5036425;28;19924;-75
2023/01/21 11:15:52;;;;;;;;;;;;;;;;;;5029826;28;19999;-74
2023/01/21 11:18:18;;;;;;;;;;;;;;;;;;5021133;28;19920;-76
2023/01/21 11:20:44;;;;;;;;;;;;;;;;;;5014652;28;20639;-75
2023/01/21 11:23:11;;;;;;;;;;;;;;;;;;5037210;28;19956;-76
2023/01/21 11:25:37;;;;;;;;;;;;;;;;;;5015231;28;20297;-75
2023/01/21 11:28:05;;;;;;;;;;;;;;;;;;5012866;28;20312;-75
2023/01/21 11:30:31;;;;;;;;;;;;;;;;;;5019287;28;19978;-74
2023/01/21 11:32:58;;;;;;;;;;;;;;;;;;5023140;28;19979;-75
2023/01/21 11:35:24;;;;;;;;;;;;;;;;;;5009980;28;19994;-76
2023/01/21 11:37:50;;;;;;;;;;;;;;;;;;4998477;28;19929;-75
2023/01/21 11:40:16;;;;;;;;;;;;;;;;;;5014562;28;20008;-76
2023/01/21 11:42:43;;;;;;;;;;;;;;;;;;5012707;28;20474;-76
2023/01/21 11:45:09;;;;;;;;;;;;;;;;;;5014527;28;19967;-74
2023/01/21 11:47:36;;;;;;;;;;;;;;;;;;5017428;28;19921;-75
2023/01/21 11:50:02;;;;;;;;;;;;;;;;;;5015066;28;19920;-75
2023/01/21 11:52:28;;;;;;;;;;;;;;;;;;4998621;28;19929;-75
2023/01/21 11:54:55;;;;;;;;;;;;;;;;;;5015633;28;19925;-75
2023/01/21 11:57:21;;;;;;;;;;;;;;;;;;5020074;28;20273;-74
2023/01/21 11:59:47;;;;;;;;;;;;;;;;;;5017640;28;19925;-75
2023/01/21 12:02:13;;;;;;;;;;;;;;;;;;5013739;28;19944;-75
2023/01/21 12:04:40;;;;;;;;;;;;;;;;;;5017881;28;19960;-77
2023/01/21 12:07:06;;;;;;;;;;;;;;;;;;5017347;28;19917;-75
2023/01/21 12:09:32;;;;;;;;;;;;;;;;;;5034854;28;20364;-75
2023/01/21 12:11:58;;;;;;;;;;;;;;;;;;5014835;28;19952;-75
2023/01/21 12:14:24;;;;;;;;;;;;;;;;;;5020578;28;19924;-75
2023/01/21 12:16:50;;;;;;;;;;;;;;;;;;5020166;28;20209;-75
2023/01/21 12:19:17;;;;;;;;;;;;;;;;;;5036991;28;19921;-76
2023/01/21 12:21:43;;;;;;;;;;;;;;;;;;5005250;28;19921;-75
2023/01/21 12:24:09;;;;;;;;;;;;;;;;;;5020873;28;20470;-75
2023/01/21 12:26:36;;;;;;;;;;;;;;;;;;5023791;28;19917;-75
2023/01/21 12:29:02;;;;;;;;;;;;;;;;;;5018961;28;19916;-76
2023/01/21 12:31:28;;;;;;;;;;;;;;;;;;5013596;28;19929;-76
2023/01/21 12:33:55;;;;;;;;;;;;;;;;;;5013840;28;19976;-76
2023/01/21 12:36:21;;;;;;;;;;;;;;;;;;5021663;28;20392;-75
2023/01/21 12:38:47;;;;;;;;;;;;;;;;;;5020082;28;19952;-77
2023/01/21 12:41:13;;;;;;;;;;;;;;;;;;5036530;28;19936;-75
2023/01/21 12:43:39;;;;;;;;;;;;;;;;;;5000438;28;19952;-75
2023/01/21 12:46:09;;;;;;;;;;;;;;;;;;5020849;28;19932;-74
2023/01/21 12:48:35;;;;;;;;;;;;;;;;;;5037355;28;20569;-77
2023/01/21 12:51:01;;;;;;;;;;;;;;;;;;5005525;28;19952;-77
2023/01/21 12:53:28;;;;;;;;;;;;;;;;;;5037259;28;19933;-75
2023/01/21 12:55:54;;;;;;;;;;;;;;;;;;5038932;28;19990;-75
2023/01/21 12:58:20;;;;;;;;;;;;;;;;;;5017253;28;19948;-77
2023/01/21 13:00:46;;;;;;;;;;;;;;;;;;5002567;28;19921;-75
2023/01/21 13:03:12;;;;;;;;;;;;;;;;;;5009215;28;19951;-75
2023/01/21 13:05:39;;;;;;;;;;;;;;;;;;5015728;28;19940;-76
2023/01/21 13:08:05;;;;;;;;;;;;;;;;;;5022528;28;19950;-76
2023/01/21 13:10:31;;;;;;;;;;;;;;;;;;5034340;28;19929;-75
2023/01/21 13:12:57;;;;;;;;;;;;;;;;;;5006411;28;19924;-76
2023/01/21 13:15:23;;;;;;;;;;;;;;;;;;5036829;28;19921;-76
2023/01/21 13:17:50;;;;;;;;;;;;;;;;;;5020545;28;19990;-75
2023/01/21 13:20:16;;;;;;;;;;;;;;;;;;5015449;28;20011;-76
2023/01/21 13:22:42;;;;;;;;;;;;;;;;;;5017096;28;19921;-76
2023/01/21 13:25:09;;;;;;;;;;;;;;;;;;5015133;28;19932;-76
2023/01/21 13:27:35;;;;;;;;;;;;;;;;;;5035876;28;20507;-77
2023/01/21 13:30:01;;;;;;;;;;;;;;;;;;5013699;28;19966;-77
2023/01/21 13:32:27;;;;;;;;;;;;;;;;;;5013730;28;19933;-76
2023/01/21 13:34:53;;;;;;;;;;;;;;;;;;5032864;28;19978;-75
2023/01/21 13:37:20;;;;;;;;;;;;;;;;;;5010785;28;19925;-75
2023/01/21 13:39:46;;;;;;;;;;;;;;;;;;5016240;28;19927;-78
2023/01/21 13:42:12;;;;;;;;;;;;;;;;;;5010615;28;19952;-77
2023/01/21 13:44:38;;;;;;;;;;;;;;;;;;5013646;28;19955;-77
2023/01/21 13:47:05;;;;;;;;;;;;;;;;;;5034818;28;19921;-77
2023/01/21 13:49:31;;;;;;;;;;;;;;;;;;5011544;28;19921;-76
2023/01/21 13:51:58;;;;;;;;;;;;;;;;;;5016136;28;19929;-75
2023/01/21 13:54:24;;;;;;;;;;;;;;;;;;5004017;28;19924;-76
2023/01/21 13:56:50;;;;;;;;;;;;;;;;;;5000018;28;19921;-76
2023/01/21 13:59:16;;;;;;;;;;;;;;;;;;5019031;28;19928;-76
2023/01/21 14:01:43;;;;;;;;;;;;;;;;;;5014544;28;19925;-77
2023/01/21 14:04:09;;;;;;;;;;;;;;;;;;5012030;28;19931;-76
2023/01/21 14:06:35;;;;;;;;;;;;;;;;;;5016327;28;20384;-77
2023/01/21 14:09:01;;;;;;;;;;;;;;;;;;5016134;28;19917;-77
2023/01/21 14:11:28;;;;;;;;;;;;;;;;;;5034354;28;19933;-75
2023/01/21 14:13:54;;;;;;;;;;;;;;;;;;5019449;28;19983;-75
2023/01/21 14:16:23;;;;;;;;;;;;;;;;;;5013430;28;20534;-77
2023/01/21 14:18:49;;;;;;;;;;;;;;;;;;5013209;28;19921;-76
2023/01/21 14:21:15;;;;;;;;;;;;;;;;;;5017633;28;19928;-76
2023/01/21 14:23:41;;;;;;;;;;;;;;;;;;5009895;28;19951;-76
2023/01/21 14:26:08;;;;;;;;;;;;;;;;;;5015930;28;19918;-77
2023/01/21 14:28:34;;;;;;;;;;;;;;;;;;5016457;28;19921;-75
2023/01/21 14:31:01;;;;;;;;;;;;;;;;;;5014150;28;20407;-76
2023/01/21 14:33:27;;;;;;;;;;;;;;;;;;5002311;28;19933;-77
2023/01/21 14:35:53;;;;;;;;;;;;;;;;;;5009560;28;20293;-76
2023/01/21 14:38:19;;;;;;;;;;;;;;;;;;5020467;28;19956;-75
2023/01/21 14:40:46;;;;;;;;;;;;;;;;;;5000001;28;19917;-76
2023/01/21 14:43:12;;;;;;;;;;;;;;;;;;5017145;28;19972;-76
2023/01/21 14:45:38;;;;;;;;;;;;;;;;;;5028939;28;20709;-75
2023/01/21 14:48:04;;;;;;;;;;;;;;;;;;5017228;28;19967;-75
2023/01/21 14:50:30;;;;;;;;;;;;;;;;;;5014529;28;19960;-75
2023/01/21 14:52:57;;;;;;;;;;;;;;;;;;5017532;28;19928;-76
2023/01/21 14:55:23;;;;;;;;;;;;;;;;;;5013549;28;19917;-76
2023/01/21 14:57:49;;;;;;;;;;;;;;;;;;5013217;28;19999;-75
2023/01/21 15:00:15;;;;;;;;;;;;;;;;;;5032668;28;20002;-77
2023/01/21 15:02:41;;;;;;;;;;;;;;;;;;5031035;28;19975;-75
2023/01/21 15:05:08;;;;;;;;;;;;;;;;;;5014703;28;19924;-77
2023/01/21 15:07:34;;;;;;;;;;;;;;;;;;5011409;28;19917;-76
2023/01/21 15:10:00;;;;;;;;;;;;;;;;;;5016012;28;20016;-76
2023/01/21 15:12:26;;;;;;;;;;;;;;;;;;5016680;28;21365;-75
2023/01/21 15:14:52;;;;;;;;;;;;;;;;;;5013886;28;19964;-76
2023/01/21 15:17:19;;;;;;;;;;;;;;;;;;5015062;28;19924;-76
2023/01/21 15:19:45;;;;;;;;;;;;;;;;;;5010481;28;19967;-76
2023/01/21 15:22:11;;;;;;;;;;;;;;;;;;5034536;28;19921;-76
2023/01/21 15:24:37;;;;;;;;;;;;;;;;;;5012750;28;19917;-76
2023/01/21 15:27:04;;;;;;;;;;;;;;;;;;5034594;28;19997;-77
2023/01/21 15:29:30;;;;;;;;;;;;;;;;;;5013797;28;19924;-77
2023/01/21 15:31:57;;;;;;;;;;;;;;;;;;5031806;28;19972;-75
2023/01/21 15:34:23;;;;;;;;;;;;;;;;;;5033199;28;19932;-77
2023/01/21 15:36:51;;;;;;;;;;;;;;;;;;5012087;28;19929;-76
2023/01/21 15:39:18;;;;;;;;;;;;;;;;;;5015871;28;20405;-77
2023/01/21 15:41:44;;;;;;;;;;;;;;;;;;5013741;28;19943;-77
2023/01/21 15:44:10;;;;;;;;;;;;;;;;;;5012118;28;19921;-76
2023/01/21 15:46:36;;;;;;;;;;;;;;;;;;5012705;28;19971;-75
2023/01/21 15:49:04;;;;;;;;;;;;;;;;;;5015151;28;20545;-77
2023/01/21 15:51:30;;;;;;;;;;;;;;;;;;5011731;28;19933;-77
2023/01/21 15:53:56;;;;;;;;;;;;;;;;;;5012815;28;19921;-77
2023/01/21 15:56:22;;;;;;;;;;;;;;;;;;5037969;28;20033;-76
2023/01/21 15:58:49;;;;;;;;;;;;;;;;;;5012057;28;21355;-76
2023/01/21 16:01:15;;;;;;;;;;;;;;;;;;5017840;28;20407;-78
2023/01/21 16:03:41;;;;;;;;;;;;;;;;;;5013300;28;20385;-79
2023/01/21 16:06:07;;;;;;;;;;;;;;;;;;5016003;28;19968;-77
2023/01/21 16:08:34;;;;;;;;;;;;;;;;;;5016261;28;21416;-75
2023/01/21 16:11:00;;;;;;;;;;;;;;;;;;5015611;28;19939;-76
2023/01/21 16:13:26;;;;;;;;;;;;;;;;;;5033531;28;19925;-76
2023/01/21 16:15:53;;;;;;;;;;;;;;;;;;5014608;28;19921;-77
2023/01/21 16:18:19;;;;;;;;;;;;;;;;;;5010434;28;20028;-76
2023/01/21 16:20:46;;;;;;;;;;;;;;;;;;5013852;28;19921;-78
2023/01/21 16:23:13;;;;;;;;;;;;;;;;;;5013569;28;19921;-76
2023/01/21 16:25:39;;;;;;;;;;;;;;;;;;5005511;28;20444;-78
2023/01/21 16:28:05;;;;;;;;;;;;;;;;;;4995862;28;20456;-76
2023/01/21 16:30:32;;;;;;;;;;;;;;;;;;5033776;28;19917;-77
2023/01/21 16:32:58;;;;;;;;;;;;;;;;;;5015993;28;19968;-75
2023/01/21 16:35:24;;;;;;;;;;;;;;;;;;5009889;28;19980;-75
2023/01/21 16:37:50;;;;;;;;;;;;;;;;;;5015622;28;20708;-76
2023/01/21 16:40:19;;;;;;;;;;;;;;;;;;5029804;28;19975;-77
2023/01/21 16:42:46;;;;;;;;;;;;;;;;;;5015097;28;20015;-78